Nrc Columbia — WDA8288 — position and weather

sailwx.info

Track history (hours):
 
Tides and Currents Weather Stations Pressure Air Temp Water Temp Dewpoint Dewpoint Depression Visibility Wind Speed Wind Dir Waves Ship Positions

Nrc Columbia

Owner: National Response Corporation, HOUSTON, TX. More information available from US FCC via Universal Licensing System and Coast Guard Vessel Documentation Center.

Last reported at 2014-Nov-28 20:05 UTC. Time now 2014-Nov-28 21:37 UTC.
Position N 48°43' W 122°40'.

Length 35 m.

Type: Pollution control. MMSI: 366710170.

Date/timePositionNaut miles runAvg speedWind from/ knotsBaromVisibWave heightAir tempDewpointWater temp
2014-Nov-28 20:05N 48°43' W 122°40'0 0.0
2014-Nov-28 19:29N 48°43' W 122°40'0 0.0
2014-Nov-28 18:32N 48°43' W 122°40'0 0.0
2014-Nov-28 17:05N 48°43' W 122°40'0 0.0
2014-Nov-28 16:29N 48°43' W 122°40'2 0.6
2014-Nov-28 13:33N 48°45' W 122°41'5 3.8
2014-Nov-28 12:08N 48°50' W 122°43'0 0.0
2014-Nov-28 10:11N 48°50' W 122°43'0 0.0
2014-Nov-27 10:17N 48°50' W 122°43'0 0.0
2014-Nov-27 09:11N 48°50' W 122°43'0 0.0
2014-Nov-27 07:11N 48°50' W 122°43'0 0.0
2014-Nov-26 17:29N 48°50' W 122°43'0 0.0
2014-Nov-26 16:29N 48°50' W 122°43'0 0.0
2014-Nov-26 15:17N 48°50' W 122°43'0 0.0
2014-Nov-26 11:11N 48°50' W 122°43'0 0.0
2014-Nov-25 20:23N 48°50' W 122°43'0 0.0
2014-Nov-25 14:05N 48°50' W 122°43'0 0.0
2014-Nov-25 09:17N 48°50' W 122°43'0 0.0
2014-Nov-25 05:23N 48°50' W 122°43'0 0.0
2014-Nov-24 20:29N 48°50' W 122°43'0 0.0
2014-Nov-24 19:29N 48°50' W 122°43'0 0.0
2014-Nov-24 18:11N 48°50' W 122°43'0 0.0
2014-Nov-24 17:26N 48°50' W 122°43'0 0.0
2014-Nov-24 16:32N 48°50' W 122°43'5 5.5
2014-Nov-24 15:33N 48°45' W 122°41'2 1.5
2014-Nov-24 14:22N 48°43' W 122°40'0 0.0
2014-Nov-24 13:16N 48°43' W 122°40'0 0.0
2014-Nov-24 12:22N 48°43' W 122°40'0 0.0
2014-Nov-24 11:16N 48°43' W 122°40'0 0.0
2014-Nov-24 09:07N 48°43' W 122°40'0 0.0
2014-Nov-24 08:31N 48°43' W 122°40'0 0.0
2014-Nov-24 07:04N 48°43' W 122°40'0 0.0
2014-Nov-24 06:31N 48°43' W 122°40'0 0.0
2014-Nov-24 05:31N 48°43' W 122°40'0 0.0
2014-Nov-24 04:31N 48°43' W 122°40'0 0.0
2014-Nov-24 03:13N 48°43' W 122°40'0 0.0
2014-Nov-24 02:31N 48°43' W 122°40'0 0.0
2014-Nov-24 01:31N 48°43' W 122°40'0 0.0
2014-Nov-23 23:10N 48°43' W 122°40'0 0.0
2014-Nov-23 21:22N 48°43' W 122°40'0 0.0
2014-Nov-23 20:25N 48°43' W 122°40'0 0.0
2014-Nov-23 19:07N 48°43' W 122°40'0 0.0
2014-Nov-23 18:25N 48°43' W 122°40'0 0.0
2014-Nov-23 17:22N 48°43' W 122°40'6 7.7
2014-Nov-23 16:33N 48°49' W 122°43'1 0.8
2014-Nov-23 15:22N 48°50' W 122°43'0 0.0
2014-Nov-23 14:28N 48°50' W 122°43'0 0.0
2014-Nov-23 12:04N 48°50' W 122°43'0 0.0
2014-Nov-23 11:31N 48°50' W 122°43'0 0.0
2014-Nov-23 10:16N 48°50' W 122°43'0 0.0
2014-Nov-23 09:10N 48°50' W 122°43'0 0.0
2014-Nov-23 08:22N 48°50' W 122°43'0 0.0
2014-Nov-22 23:19N 48°50' W 122°43'0 0.0
2014-Nov-22 22:19N 48°50' W 122°43'0 0.0
2014-Nov-22 21:25N 48°50' W 122°43'0 0.0
2014-Nov-22 17:25N 48°50' W 122°43'0 0.0
2014-Nov-22 15:31N 48°50' W 122°43'8 7.9
2014-Nov-22 14:33N 48°45' W 122°53'1 1.0
2014-Nov-22 13:26N 48°46' W 122°54'0 0.0
2014-Nov-22 12:23N 48°46' W 122°54'0 0.0
2014-Nov-22 11:11N 48°46' W 122°54'0 0.0
2014-Nov-22 09:29N 48°46' W 122°54'0 0.0
2014-Nov-22 07:29N 48°46' W 122°54'0 0.0
2014-Nov-22 05:11N 48°46' W 122°54'0 0.0
2014-Nov-22 02:26N 48°46' W 122°54'0 0.0
2014-Nov-22 01:26N 48°46' W 122°54'0 0.0
2014-Nov-22 00:11N 48°46' W 122°54'0 0.0
2014-Nov-21 22:26N 48°46' W 122°54'0 0.0
2014-Nov-21 21:33N 48°46' W 122°54'7 6.9
2014-Nov-21 20:32N 48°49' W 122°45'1 0.4
2014-Nov-21 17:20N 48°50' W 122°43'0 0.0
2014-Nov-21 16:14N 48°50' W 122°43'0 0.0
2014-Nov-21 12:14N 48°50' W 122°43'0 0.0
2014-Nov-21 08:08N 48°50' W 122°43'0 0.0
2014-Nov-21 05:32N 48°50' W 122°43'0 0.0
2014-Nov-21 02:26N 48°50' W 122°43'0 0.0
2014-Nov-20 23:08N 48°50' W 122°43'0 0.0
2014-Nov-20 17:20N 48°50' W 122°43'0 0.0
2014-Nov-20 16:14N 48°50' W 122°43'0 0.0
2014-Nov-20 10:23N 48°50' W 122°43'0 0.0
2014-Nov-20 08:20N 48°50' W 122°43'0 0.0
2014-Nov-20 07:23N 48°50' W 122°43'0 0.0
2014-Nov-20 06:29N 48°50' W 122°43'0 0.0
2014-Nov-20 04:20N 48°50' W 122°43'0 0.0
2014-Nov-20 03:29N 48°50' W 122°43'0 0.0
2014-Nov-20 01:17N 48°50' W 122°43'0 0.0
2014-Nov-19 18:08N 48°50' W 122°43'0 0.0
2014-Nov-19 14:26N 48°50' W 122°43'0 0.0
2014-Nov-19 11:23N 48°50' W 122°43'0 0.0
2014-Nov-19 07:05N 48°50' W 122°43'0 0.0
2014-Nov-19 05:08N 48°50' W 122°43'0 0.0
2014-Nov-18 20:29N 48°50' W 122°43'  
Track history (hours):
 
Tides and Currents Weather Stations Pressure Air Temp Water Temp Dewpoint Dewpoint Depression Visibility Wind Speed Wind Dir Waves Ship Positions

Nrc Columbia

Owner: National Response Corporation, HOUSTON, TX. More information available from US FCC via Universal Licensing System and Coast Guard Vessel Documentation Center.

Last reported at 2014-Nov-28 20:05 UTC. Time now 2014-Nov-28 21:37 UTC.
Position N 48°43' W 122°40'.

Length 35 m.

Type: Pollution control. MMSI: 366710170.

Date/timePositionNaut miles runAvg speedWind from/ knotsBaromVisibWave heightAir tempDewpointWater temp
2014-Nov-28 20:05N 48°43' W 122°40'0 0.0
2014-Nov-28 19:29N 48°43' W 122°40'0 0.0
2014-Nov-28 18:32N 48°43' W 122°40'0 0.0
2014-Nov-28 17:05N 48°43' W 122°40'0 0.0
2014-Nov-28 16:29N 48°43' W 122°40'2 0.6
2014-Nov-28 13:33N 48°45' W 122°41'5 3.8
2014-Nov-28 12:08N 48°50' W 122°43'0 0.0
2014-Nov-28 10:11N 48°50' W 122°43'0 0.0
2014-Nov-27 10:17N 48°50' W 122°43'0 0.0
2014-Nov-27 09:11N 48°50' W 122°43'0 0.0
2014-Nov-27 07:11N 48°50' W 122°43'0 0.0
2014-Nov-26 17:29N 48°50' W 122°43'0 0.0
2014-Nov-26 16:29N 48°50' W 122°43'0 0.0
2014-Nov-26 15:17N 48°50' W 122°43'0 0.0
2014-Nov-26 11:11N 48°50' W 122°43'0 0.0
2014-Nov-25 20:23N 48°50' W 122°43'0 0.0
2014-Nov-25 14:05N 48°50' W 122°43'0 0.0
2014-Nov-25 09:17N 48°50' W 122°43'0 0.0
2014-Nov-25 05:23N 48°50' W 122°43'0 0.0
2014-Nov-24 20:29N 48°50' W 122°43'0 0.0
2014-Nov-24 19:29N 48°50' W 122°43'0 0.0
2014-Nov-24 18:11N 48°50' W 122°43'0 0.0
2014-Nov-24 17:26N 48°50' W 122°43'0 0.0
2014-Nov-24 16:32N 48°50' W 122°43'5 5.5
2014-Nov-24 15:33N 48°45' W 122°41'2 1.5
2014-Nov-24 14:22N 48°43' W 122°40'0 0.0
2014-Nov-24 13:16N 48°43' W 122°40'0 0.0
2014-Nov-24 12:22N 48°43' W 122°40'0 0.0
2014-Nov-24 11:16N 48°43' W 122°40'0 0.0
2014-Nov-24 09:07N 48°43' W 122°40'0 0.0
2014-Nov-24 08:31N 48°43' W 122°40'0 0.0
2014-Nov-24 07:04N 48°43' W 122°40'0 0.0
2014-Nov-24 06:31N 48°43' W 122°40'0 0.0
2014-Nov-24 05:31N 48°43' W 122°40'0 0.0
2014-Nov-24 04:31N 48°43' W 122°40'0 0.0
2014-Nov-24 03:13N 48°43' W 122°40'0 0.0
2014-Nov-24 02:31N 48°43' W 122°40'0 0.0
2014-Nov-24 01:31N 48°43' W 122°40'0 0.0
2014-Nov-23 23:10N 48°43' W 122°40'0 0.0
2014-Nov-23 21:22N 48°43' W 122°40'0 0.0
2014-Nov-23 20:25N 48°43' W 122°40'0 0.0
2014-Nov-23 19:07N 48°43' W 122°40'0 0.0
2014-Nov-23 18:25N 48°43' W 122°40'0 0.0
2014-Nov-23 17:22N 48°43' W 122°40'6 7.7
2014-Nov-23 16:33N 48°49' W 122°43'1 0.8
2014-Nov-23 15:22N 48°50' W 122°43'0 0.0
2014-Nov-23 14:28N 48°50' W 122°43'0 0.0
2014-Nov-23 12:04N 48°50' W 122°43'0 0.0
2014-Nov-23 11:31N 48°50' W 122°43'0 0.0
2014-Nov-23 10:16N 48°50' W 122°43'0 0.0
2014-Nov-23 09:10N 48°50' W 122°43'0 0.0
2014-Nov-23 08:22N 48°50' W 122°43'0 0.0
2014-Nov-22 23:19N 48°50' W 122°43'0 0.0
2014-Nov-22 22:19N 48°50' W 122°43'0 0.0
2014-Nov-22 21:25N 48°50' W 122°43'0 0.0
2014-Nov-22 17:25N 48°50' W 122°43'0 0.0
2014-Nov-22 15:31N 48°50' W 122°43'8 7.9
2014-Nov-22 14:33N 48°45' W 122°53'1 1.0
2014-Nov-22 13:26N 48°46' W 122°54'0 0.0
2014-Nov-22 12:23N 48°46' W 122°54'0 0.0
2014-Nov-22 11:11N 48°46' W 122°54'0 0.0
2014-Nov-22 09:29N 48°46' W 122°54'0 0.0
2014-Nov-22 07:29N 48°46' W 122°54'0 0.0
2014-Nov-22 05:11N 48°46' W 122°54'0 0.0
2014-Nov-22 02:26N 48°46' W 122°54'0 0.0
2014-Nov-22 01:26N 48°46' W 122°54'0 0.0
2014-Nov-22 00:11N 48°46' W 122°54'0 0.0
2014-Nov-21 22:26N 48°46' W 122°54'0 0.0
2014-Nov-21 21:33N 48°46' W 122°54'7 6.9
2014-Nov-21 20:32N 48°49' W 122°45'1 0.4
2014-Nov-21 17:20N 48°50' W 122°43'0 0.0
2014-Nov-21 16:14N 48°50' W 122°43'0 0.0
2014-Nov-21 12:14N 48°50' W 122°43'0 0.0
2014-Nov-21 08:08N 48°50' W 122°43'0 0.0
2014-Nov-21 05:32N 48°50' W 122°43'0 0.0
2014-Nov-21 02:26N 48°50' W 122°43'0 0.0
2014-Nov-20 23:08N 48°50' W 122°43'0 0.0
2014-Nov-20 17:20N 48°50' W 122°43'0 0.0
2014-Nov-20 16:14N 48°50' W 122°43'0 0.0
2014-Nov-20 10:23N 48°50' W 122°43'0 0.0
2014-Nov-20 08:20N 48°50' W 122°43'0 0.0
2014-Nov-20 07:23N 48°50' W 122°43'0 0.0
2014-Nov-20 06:29N 48°50' W 122°43'0 0.0
2014-Nov-20 04:20N 48°50' W 122°43'0 0.0
2014-Nov-20 03:29N 48°50' W 122°43'0 0.0
2014-Nov-20 01:17N 48°50' W 122°43'0 0.0
2014-Nov-19 18:08N 48°50' W 122°43'0 0.0
2014-Nov-19 14:26N 48°50' W 122°43'0 0.0
2014-Nov-19 11:23N 48°50' W 122°43'0 0.0
2014-Nov-19 07:05N 48°50' W 122°43'0 0.0
2014-Nov-19 05:08N 48°50' W 122°43'0 0.0
2014-Nov-18 20:29N 48°50' W 122°43'  

Dump ship's entire track history